Richardson's Hourly Summary for Friday, May 11, 2018
Hour Temp
(f)
RH
(%)
Solar Rad.
(MJ/m2)
Rainfall
(in)
Wind
(mph)
5/11/2018 12:00 AM 76 52 0 0 7.2
5/11/2018 1:00 AM 75 52 0 0 9.79
5/11/2018 2:00 AM 73 60 0 0 9.08
5/11/2018 3:00 AM 72 65 0 0 9.31
5/11/2018 4:00 AM 71 70 0 0 9.37
5/11/2018 5:00 AM 69 74 0 0 8.71
5/11/2018 6:00 AM 68 80 0 0 8.18
5/11/2018 7:00 AM 68 80 0.04 0 8.12
5/11/2018 8:00 AM 69 77 0.4 0 8
5/11/2018 9:00 AM 71 72 0.74 0 9.51
5/11/2018 10:00 AM 74 60 1.7 0 10.94
5/11/2018 11:00 AM 77 56 2.44 0 12.25
5/11/2018 12:00 PM 79 50 2.33 0 11.95
5/11/2018 1:00 PM 82 46 3.1 0 12.22
5/11/2018 2:00 PM 83 44 2.39 0 10.43
5/11/2018 3:00 PM 84 42 2.72 0 10.65
5/11/2018 4:00 PM 85 40 2.76 0 11.7
5/11/2018 5:00 PM 85 38 2.31 0 11.77
5/11/2018 6:00 PM 85 38 1.67 0 11.57
5/11/2018 7:00 PM 85 40 0.99 0 10.75
5/11/2018 8:00 PM 83 42 0.26 0 10.2
5/11/2018 9:00 PM 81 45 0.01 0 7.78
5/11/2018 10:00 PM 79 49 0 0 6.12
5/11/2018 11:00 PM 78 52 0 0 6.81
Data Summary 77 55 23.86 0.00 9.68